Time;durP1;ratioP1;P1;durP2;ratioP2;P2;SDS_P1;SDS_P2;PMS_P1;PMS_P2;Temp;Humidity;BMP_temperature;BMP_pressure;BME280_temperature;BME280_humidity;BME280_pressure;Samples;Min_cycle;Max_cycle;Signal;HPM_P1;HPM_P2
2023/08/17 00:03:18;;;;;;;15.75;8.73;;;;;;;17.69;84.65;100022.59;4921106;28;20046;-79
2023/08/17 00:05:44;;;;;;;19.30;9.18;;;;;;;17.67;84.47;100024.59;4932248;28;20402;-75
2023/08/17 00:08:11;;;;;;;17.05;9.23;;;;;;;17.65;84.89;100031.97;4915622;29;20055;-80
2023/08/17 00:10:38;;;;;;;17.63;9.00;;;;;;;17.67;84.83;100016.50;4934159;28;20055;-76
2023/08/17 00:13:05;;;;;;;15.68;8.30;;;;;;;17.65;85.16;99972.66;4917652;29;20047;-76
2023/08/17 00:15:32;;;;;;;12.40;8.98;;;;;;;17.64;85.27;100010.53;4917980;29;20054;-79
2023/08/17 00:17:58;;;;;;;13.90;8.13;;;;;;;17.62;85.41;100018.72;4901650;29;20078;-78
2023/08/17 00:20:25;;;;;;;12.23;8.55;;;;;;;17.61;85.33;100022.41;4917236;28;20054;-76
2023/08/17 00:22:51;;;;;;;18.42;9.55;;;;;;;17.58;85.20;100020.03;4934170;28;20043;-78
2023/08/17 00:25:43;;;;;;;15.77;9.73;;;;;;;17.58;84.98;99976.91;4918486;29;20073;-70
2023/08/17 00:28:10;;;;;;;11.05;8.43;;;;;;;17.56;85.00;100024.72;4916864;29;20058;-70
2023/08/17 00:30:42;;;;;;;15.50;8.80;;;;;;;17.53;85.42;100016.91;4915505;29;20047;-71
2023/08/17 00:33:58;;;;;;;22.65;8.98;;;;;;;17.50;85.55;100044.16;4920189;29;20066;-76
2023/08/17 00:37:43;;;;;;;17.08;9.95;;;;;;;17.54;85.83;100033.94;4931691;28;20058;-73
2023/08/17 00:40:11;;;;;;;14.80;9.05;;;;;;;17.41;85.29;100051.25;4925963;29;20090;-77
2023/08/17 00:43:06;;;;;;;19.42;8.95;;;;;;;17.33;85.21;100044.91;4937732;29;20059;-70
2023/08/17 00:45:34;;;;;;;14.60;9.98;;;;;;;17.31;85.31;100025.31;4939274;29;20053;-72
2023/08/17 00:48:05;;;;;;;18.08;9.38;;;;;;;17.26;86.00;100046.47;4921660;29;20055;-72
2023/08/17 00:50:30;;;;;;;17.08;9.30;;;;;;;17.26;86.19;100051.84;4917471;29;20147;-72
2023/08/17 00:52:58;;;;;;;16.75;9.25;;;;;;;17.26;86.67;100046.47;4934841;28;20058;-73
2023/08/17 00:55:25;;;;;;;16.52;9.50;;;;;;;17.25;86.95;100037.53;4906576;28;20055;-72
2023/08/17 00:57:54;;;;;;;15.77;9.55;;;;;;;17.25;86.71;100040.22;4902951;29;20054;-71
2023/08/17 01:00:20;;;;;;;16.77;9.25;;;;;;;17.26;87.08;100039.25;4927216;28;20066;-73
2023/08/17 01:03:12;;;;;;;16.27;9.18;;;;;;;17.25;87.13;100056.41;4948780;28;20042;-73
2023/08/17 01:05:37;;;;;;;20.13;10.07;;;;;;;17.24;87.43;100037.66;4957856;28;20065;-73
2023/08/17 01:08:03;;;;;;;18.83;9.30;;;;;;;17.24;87.21;100038.53;4959182;28;20417;-73
2023/08/17 01:10:44;;;;;;;17.52;9.70;;;;;;;17.28;87.55;100036.38;4957627;28;20050;-73
2023/08/17 01:13:18;;;;;;;17.20;10.27;;;;;;;17.24;87.64;100032.28;4959050;28;20041;-73
2023/08/17 01:15:51;;;;;;;13.93;9.15;;;;;;;17.23;87.67;100042.22;4957833;28;20046;-73
2023/08/17 01:18:39;;;;;;;15.77;10.32;;;;;;;17.24;87.38;100002.63;4941052;28;20050;-74
2023/08/17 01:21:06;;;;;;;15.43;9.05;;;;;;;17.18;87.46;100038.22;4957699;28;20069;-73
2023/08/17 01:23:32;;;;;;;18.33;10.35;;;;;;;17.15;87.42;100035.84;4958759;28;20042;-73
2023/08/17 01:26:00;;;;;;;19.75;10.38;;;;;;;17.14;87.92;100037.69;4958730;28;20489;-74
2023/08/17 01:28:25;;;;;;;22.52;10.40;;;;;;;17.10;88.13;100052.41;4941149;28;20046;-75
2023/08/17 01:31:46;;;;;;;17.50;9.75;;;;;;;17.18;88.20;100044.47;4941305;28;20050;-74
2023/08/17 01:34:18;;;;;;;18.20;9.57;;;;;;;17.09;88.02;100061.47;4899124;29;20043;-72
2023/08/17 01:36:50;;;;;;;20.17;10.38;;;;;;;17.07;88.11;100144.28;4897643;29;20059;-70
2023/08/17 01:39:16;;;;;;;18.58;10.43;;;;;;;17.01;87.92;100037.94;4882847;29;20052;-67
2023/08/17 01:41:43;;;;;;;16.60;9.90;;;;;;;16.99;88.13;100066.00;4898472;29;20055;-70
2023/08/17 01:44:09;;;;;;;13.77;8.82;;;;;;;16.99;88.58;100042.63;4882998;29;20051;-70
2023/08/17 01:46:34;;;;;;;19.40;10.43;;;;;;;16.98;88.71;100040.06;4854066;29;20062;-70
2023/08/17 01:49:02;;;;;;;16.63;9.80;;;;;;;16.96;88.63;100047.44;4885267;29;20072;-69
2023/08/17 01:51:31;;;;;;;18.65;10.48;;;;;;;16.95;89.03;100048.41;4900649;29;20438;-69
2023/08/17 01:53:58;;;;;;;17.98;9.55;;;;;;;16.95;88.89;100043.03;4898332;29;20545;-70
2023/08/17 01:56:23;;;;;;;16.67;9.70;;;;;;;16.92;89.05;100052.28;4884140;29;20051;-71
2023/08/17 01:58:49;;;;;;;19.27;11.45;;;;;;;16.90;89.10;100067.72;4900318;29;20095;-72
2023/08/17 02:01:14;;;;;;;19.83;9.35;;;;;;;16.90;89.28;100056.09;4883560;29;20526;-72
2023/08/17 02:03:42;;;;;;;15.73;8.75;;;;;;;16.91;89.36;100053.25;4898540;29;20048;-72
2023/08/17 02:06:09;;;;;;;16.58;10.43;;;;;;;16.90;89.83;100073.09;4899504;29;20052;-71
2023/08/17 02:08:37;;;;;;;16.50;9.80;;;;;;;16.90;89.59;100016.53;4882173;29;20043;-71
2023/08/17 02:11:02;;;;;;;16.58;9.68;;;;;;;16.90;89.89;100059.63;4935723;28;20053;-71
2023/08/17 02:13:30;;;;;;;18.55;10.30;;;;;;;16.92;90.02;100059.50;4939764;28;20061;-72
2023/08/17 02:16:06;;;;;;;19.60;10.25;;;;;;;16.92;89.98;100057.66;4955631;28;20038;-72
2023/08/17 02:18:51;;;;;;;15.85;10.13;;;;;;;16.89;90.18;100071.38;4940953;28;20053;-70
2023/08/17 02:21:16;;;;;;;15.48;10.07;;;;;;;16.90;89.83;100050.69;4941958;28;20053;-72
2023/08/17 02:23:42;;;;;;;16.92;10.02;;;;;;;16.90;89.96;100062.31;4926559;28;20050;-71
2023/08/17 02:26:07;;;;;;;17.30;10.35;;;;;;;16.95;90.39;100053.81;4941074;28;20050;-70
2023/08/17 02:28:32;;;;;;;19.75;10.75;;;;;;;16.98;90.35;100054.38;4958775;28;20492;-70
2023/08/17 02:30:58;;;;;;;20.42;10.45;;;;;;;17.02;90.00;100049.56;4956570;28;20089;-71
2023/08/17 02:33:28;;;;;;;17.27;10.63;;;;;;;17.04;89.91;100059.19;4940522;28;20057;-71
2023/08/17 02:36:24;;;;;;;17.25;10.52;;;;;;;17.10;89.83;100083.88;4957615;28;20057;-71
2023/08/17 02:38:51;;;;;;;18.73;10.02;;;;;;;17.16;89.30;100056.38;4939490;28;20069;-71
2023/08/17 02:41:20;;;;;;;16.23;9.50;;;;;;;17.20;89.12;100053.25;4957227;28;20042;-72
2023/08/17 02:44:18;;;;;;;13.20;9.30;;;;;;;17.36;88.54;100058.94;4939560;28;20050;-71
2023/08/17 02:46:45;;;;;;;19.45;9.82;;;;;;;17.33;88.01;100053.81;4956877;28;20039;-72
2023/08/17 02:49:41;;;;;;;15.98;10.10;;;;;;;17.52;87.61;100058.34;4957275;28;20050;-72
2023/08/17 02:52:08;;;;;;;14.13;9.40;;;;;;;17.49;86.92;100057.81;4939345;28;20073;-71
2023/08/17 02:54:36;;;;;;;17.38;10.45;;;;;;;17.59;87.09;100058.63;4956774;28;20045;-73
2023/08/17 02:57:03;;;;;;;17.42;9.90;;;;;;;17.67;86.67;100067.72;4939272;28;20054;-71
2023/08/17 02:59:28;;;;;;;19.48;10.32;;;;;;;17.78;86.48;100058.63;4932905;28;20062;-76
2023/08/17 03:01:54;;;;;;;20.50;10.82;;;;;;;17.90;85.73;100057.47;4918718;29;20510;-77
2023/08/17 03:04:23;;;;;;;17.90;8.00;;;;;;;18.02;85.17;100053.59;4918948;29;20525;-77
2023/08/17 03:06:52;;;;;;;16.33;9.48;;;;;;;18.11;84.40;100038.34;4905186;29;20054;-79
2023/08/17 03:09:20;;;;;;;16.77;10.48;;;;;;;18.25;83.75;100061.31;4902187;29;20059;-74
2023/08/17 03:11:46;;;;;;;20.20;9.75;;;;;;;18.38;83.60;100083.44;4924871;28;20047;-75
2023/08/17 03:14:14;;;;;;;17.90;9.85;;;;;;;18.54;83.12;100061.16;4916261;29;20046;-73
2023/08/17 03:16:41;;;;;;;14.88;8.98;;;;;;;18.64;82.30;100057.44;4917072;29;20778;-73
2023/08/17 03:19:32;;;;;;;12.77;8.75;;;;;;;18.80;81.27;100070.28;4923981;28;20057;-73
2023/08/17 03:22:03;;;;;;;17.23;8.68;;;;;;;18.93;80.90;100059.13;4929617;28;20047;-73
2023/08/17 03:24:30;;;;;;;15.82;10.45;;;;;;;19.03;80.05;100063.47;4932115;28;20054;-73
2023/08/17 03:26:57;;;;;;;18.20;9.15;;;;;;;19.18;79.51;100055.69;4933046;28;20595;-72
2023/08/17 03:29:27;;;;;;;14.27;9.40;;;;;;;19.30;79.01;100080.63;4917362;29;20069;-76
2023/08/17 03:32:17;;;;;;;15.35;9.77;;;;;;;19.48;78.46;100054.41;4916697;28;20051;-76
2023/08/17 03:34:42;;;;;;;26.90;11.70;;;;;;;19.59;77.79;100048.78;4922121;29;20051;-79
2023/08/17 03:40:01;;;;;;;18.05;10.95;;;;;;;19.69;76.33;100082.00;4900054;29;20136;-75
2023/08/17 03:42:33;;;;;;;21.58;9.75;;;;;;;19.73;76.11;100061.75;4914454;29;20071;-76
2023/08/17 03:45:03;;;;;;;25.52;10.52;;;;;;;19.87;76.69;100061.16;4916510;29;20051;-75
2023/08/17 03:47:57;;;;;;;15.65;8.55;;;;;;;20.10;75.97;100049.78;4921482;28;20047;-76
2023/08/17 03:50:32;;;;;;;16.77;9.23;;;;;;;20.29;75.38;100053.13;4917784;29;20047;-76
2023/08/17 03:52:57;;;;;;;16.35;9.90;;;;;;;20.50;74.94;100049.19;4901442;29;20058;-76
2023/08/17 03:55:24;;;;;;;15.50;9.13;;;;;;;20.69;74.46;100053.47;4917954;29;20043;-75
2023/08/17 03:57:52;;;;;;;19.08;9.70;;;;;;;20.90;74.00;100062.00;4917595;29;20054;-75
2023/08/17 04:00:51;;;;;;;21.40;10.45;;;;;;;21.23;73.23;100057.50;4918601;28;20609;-75
2023/08/17 04:03:28;;;;;;;18.48;8.98;;;;;;;21.34;72.69;100070.75;4901698;29;20051;-75
2023/08/17 04:05:55;;;;;;;16.90;10.68;;;;;;;21.51;72.27;100077.88;4918730;29;20132;-76
2023/08/17 04:08:20;;;;;;;17.90;9.50;;;;;;;21.69;71.66;100048.69;4917753;28;20073;-76
2023/08/17 04:10:49;;;;;;;20.80;10.82;;;;;;;21.89;70.94;100081.78;4933354;28;20490;-75
2023/08/17 04:13:16;;;;;;;20.80;11.68;;;;;;;22.08;69.47;100048.84;4917346;29;20047;-75
2023/08/17 04:15:43;;;;;;;20.25;11.48;;;;;;;22.22;69.11;100049.16;4918011;29;20035;-75
2023/08/17 04:18:33;;;;;;;20.80;10.57;;;;;;;22.56;68.61;100054.28;4917092;29;20050;-77
2023/08/17 04:20:59;;;;;;;18.38;9.95;;;;;;;22.73;67.83;100050.47;4917150;29;20062;-74
2023/08/17 04:23:24;;;;;;;23.75;11.15;;;;;;;23.08;66.75;100052.66;4932385;28;20557;-75
2023/08/17 04:25:50;;;;;;;22.73;11.90;;;;;;;23.47;65.87;100052.56;4917561;29;20074;-74
2023/08/17 04:28:18;;;;;;;20.23;11.15;;;;;;;23.85;64.83;100049.84;4932355;28;20442;-74
2023/08/17 04:31:09;;;;;;;19.95;10.68;;;;;;;24.26;63.74;100025.78;4917180;29;20054;-75
2023/08/17 04:33:40;;;;;;;21.40;10.98;;;;;;;24.61;62.52;100052.25;4916254;29;20051;-74
2023/08/17 04:36:06;;;;;;;16.20;9.55;;;;;;;24.95;61.81;100048.91;4917248;28;20043;-74
2023/08/17 04:38:31;;;;;;;15.73;11.52;;;;;;;25.30;60.10;100052.66;4921948;29;20070;-74
2023/08/17 04:40:57;;;;;;;24.65;11.85;;;;;;;25.62;58.83;100072.31;4919609;29;20050;-74
2023/08/17 04:43:23;;;;;;;34.92;11.57;;;;;;;25.95;57.62;100053.47;4919574;28;20417;-74
2023/08/17 04:45:48;;;;;;;19.95;11.07;;;;;;;26.26;56.77;100047.56;4918981;29;20058;-77
2023/08/17 04:48:14;;;;;;;26.10;12.07;;;;;;;26.58;56.28;100063.34;4919656;29;20058;-77
2023/08/17 04:50:43;;;;;;;18.67;11.00;;;;;;;26.87;55.61;100055.88;4920391;29;20044;-76
2023/08/17 04:53:34;;;;;;;16.92;9.77;;;;;;;27.25;53.50;100053.50;4919673;29;20410;-76
2023/08/17 04:58:53;;;;;;;13.77;9.52;;;;;;;27.46;52.48;100045.97;4919701;29;20043;-78
2023/08/17 05:01:22;;;;;;;18.00;9.50;;;;;;;27.54;52.46;100079.69;4920634;28;20051;-79
2023/08/17 05:03:51;;;;;;;15.10;9.35;;;;;;;27.66;51.58;100056.94;4920946;29;20062;-79
2023/08/17 05:06:18;;;;;;;16.77;9.25;;;;;;;27.88;51.93;100054.03;4921262;29;20039;-78
2023/08/17 05:09:09;;;;;;;14.05;8.95;;;;;;;28.24;51.53;100059.03;4921474;29;20051;-74
2023/08/17 05:11:40;;;;;;;19.80;9.93;;;;;;;28.49;50.18;100052.66;4921966;29;20066;-76
2023/08/17 05:14:05;;;;;;;18.42;8.43;;;;;;;28.94;48.87;100066.44;4921200;29;20047;-75
2023/08/17 05:16:30;;;;;;;20.92;9.60;;;;;;;29.38;47.21;100062.84;4921763;29;20058;-79
2023/08/17 05:18:58;;;;;;;11.77;8.98;;;;;;;29.76;46.22;100043.53;4921059;29;20062;-77
2023/08/17 05:21:25;;;;;;;18.25;8.68;;;;;;;30.09;44.46;100081.75;4921206;29;20405;-79
2023/08/17 05:24:42;;;;;;;14.35;8.35;;;;;;;30.60;44.61;100055.84;4921289;28;20051;-79
2023/08/17 05:27:09;;;;;;;;;;;;;;;30.93;43.02;100049.91;4922050;29;20101;-79
2023/08/17 05:29:38;;;;;;;18.15;7.53;;;;;;;30.75;43.52;100050.78;4921623;29;19918;-79
2023/08/17 05:32:04;;;;;;;10.50;7.45;;;;;;;30.98;43.10;100058.34;4921258;29;20043;-79
2023/08/17 05:34:31;;;;;;;16.55;9.07;;;;;;;31.27;42.24;100046.50;4907226;29;20069;-75
2023/08/17 05:36:59;;;;;;;16.40;8.65;;;;;;;31.57;40.60;100070.44;4937767;28;20397;-74
2023/08/17 05:39:27;;;;;;;14.27;8.60;;;;;;;31.56;39.18;100054.97;4920662;29;20058;-76
2023/08/17 05:42:18;;;;;;;23.45;9.02;;;;;;;31.92;38.94;100057.59;4921638;29;20050;-74
2023/08/17 05:47:38;;;;;;;17.20;9.10;;;;;;;32.63;37.35;100045.41;4920397;28;20070;-74
2023/08/17 05:50:08;;;;;;;13.80;7.07;;;;;;;33.15;36.53;100060.06;4922267;29;20059;-74
2023/08/17 05:52:36;;;;;;;14.40;7.75;;;;;;;33.63;35.45;100049.63;4921259;29;20051;-74
2023/08/17 05:55:05;;;;;;;14.48;8.88;;;;;;;34.12;34.36;100045.19;4936815;28;20043;-75
2023/08/17 05:57:31;;;;;;;13.88;8.98;;;;;;;34.62;33.61;100042.34;4920603;29;20063;-78
2023/08/17 05:59:56;;;;;;;15.50;8.32;;;;;;;35.03;32.70;100048.38;4916328;28;20055;-81
2023/08/17 06:02:23;;;;;;;9.15;6.47;;;;;;;35.53;32.48;100048.94;4941270;28;20057;-79
2023/08/17 06:04:48;;;;;;;13.38;7.38;;;;;;;36.09;31.91;100062.47;4923693;28;20058;-81
2023/08/17 06:07:15;;;;;;;9.75;5.82;;;;;;;36.50;31.07;100064.41;4940879;28;20405;-80
2023/08/17 06:09:41;;;;;;;8.25;5.65;;;;;;;36.97;30.66;100050.47;4922763;28;20572;-79
2023/08/17 06:12:08;;;;;;;12.35;5.82;;;;;;;37.48;29.97;100064.50;4927565;28;20413;-79
2023/08/17 06:14:34;;;;;;;16.00;6.43;;;;;;;37.99;28.87;100051.50;4960267;28;20045;-80
2023/08/17 06:17:02;;;;;;;7.38;5.20;;;;;;;38.36;28.42;100033.63;4975292;28;20037;-77
2023/08/17 06:19:53;;;;;;;12.20;5.80;;;;;;;38.91;28.75;100054.06;4982763;28;20026;-78
2023/08/17 06:22:18;;;;;;;10.52;5.32;;;;;;;39.06;27.52;100049.25;4982838;28;20050;-71
2023/08/17 06:24:43;;;;;;;5.55;4.95;;;;;;;39.32;26.86;100060.25;4969813;28;20046;-72
2023/08/17 06:27:15;;;;;;;13.88;5.38;;;;;;;39.68;26.69;100033.78;4959133;28;20053;-72
2023/08/17 06:29:43;;;;;;;5.85;4.53;;;;;;;40.13;25.34;100029.75;4976388;28;20046;-73
2023/08/17 06:32:09;;;;;;;9.93;4.72;;;;;;;40.59;24.72;100024.53;4952065;28;20046;-74
2023/08/17 06:34:34;;;;;;;8.93;5.38;;;;;;;41.14;24.20;100030.53;4927394;28;20050;-74
2023/08/17 06:37:02;;;;;;;7.53;5.10;;;;;;;41.73;23.19;100065.47;4960026;28;20046;-73
2023/08/17 06:39:28;;;;;;;7.15;5.15;;;;;;;42.27;22.80;100033.97;4958805;28;20401;-73
2023/08/17 06:41:56;;;;;;;9.73;5.38;;;;;;;42.88;22.50;100040.38;4956693;28;20481;-74
2023/08/17 06:44:21;;;;;;;10.32;5.45;;;;;;;43.43;22.15;100025.06;4940216;28;20404;-73
2023/08/17 06:46:47;;;;;;;8.90;5.80;;;;;;;44.00;21.65;100022.53;4957481;28;20413;-73
2023/08/17 06:49:15;;;;;;;7.93;6.05;;;;;;;44.56;20.65;100040.66;4940137;28;20050;-72
2023/08/17 06:51:46;;;;;;;7.82;6.25;;;;;;;44.96;20.15;100032.16;4957805;28;20050;-73
2023/08/17 06:54:11;;;;;;;6.60;5.78;;;;;;;45.25;19.95;100023.97;4924938;28;20050;-74
2023/08/17 06:56:40;;;;;;;7.90;6.82;;;;;;;45.36;19.32;100042.19;4957366;28;20505;-73
2023/08/17 06:59:05;;;;;;;12.18;6.70;;;;;;;45.52;19.09;100018.00;4957471;28;20553;-73
2023/08/17 07:01:30;;;;;;;7.95;6.93;;;;;;;45.55;18.88;100022.16;4956290;28;20058;-73
2023/08/17 07:03:57;;;;;;;12.13;7.90;;;;;;;45.56;19.12;100023.81;4955945;28;20061;-72
2023/08/17 07:06:26;;;;;;;8.32;7.15;;;;;;;45.63;19.00;100012.00;4939517;28;20058;-72
2023/08/17 07:08:54;;;;;;;10.20;7.55;;;;;;;45.85;18.59;100003.34;4957386;28;20476;-73
2023/08/17 07:11:20;;;;;;;8.90;7.80;;;;;;;46.13;18.60;100024.38;4939338;28;20064;-73
2023/08/17 07:14:12;;;;;;;8.63;7.43;;;;;;;46.92;18.19;100018.03;4957249;28;20042;-73
2023/08/17 07:19:29;;;;;;;9.50;8.52;;;;;;;47.14;17.87;100016.06;4939876;28;20519;-74
2023/08/17 07:21:55;;;;;;;12.40;9.38;;;;;;;47.24;18.01;100004.34;4956260;28;20412;-74
2023/08/17 07:24:20;;;;;;;11.70;9.77;;;;;;;46.96;17.56;100015.31;4939894;28;20057;-73
2023/08/17 07:26:46;;;;;;;16.13;8.93;;;;;;;46.34;18.28;100020.81;4956821;28;20042;-73
2023/08/17 07:32:04;;;;;;;9.45;8.30;;;;;;;47.09;17.95;100019.06;4956110;28;20049;-72
2023/08/17 07:34:33;;;;;;;10.60;9.55;;;;;;;47.50;17.43;100007.81;4956828;28;20042;-74
2023/08/17 07:37:00;;;;;;;12.85;10.20;;;;;;;47.52;17.32;100004.63;4956128;28;20058;-72
2023/08/17 07:39:28;;;;;;;10.88;9.75;;;;;;;47.75;17.01;100002.28;4955495;28;20057;-74
2023/08/17 07:41:55;;;;;;;14.32;10.02;;;;;;;48.14;16.97;100032.75;4938910;28;20054;-74
2023/08/17 07:44:20;;;;;;;12.52;9.98;;;;;;;48.34;16.89;100006.38;4956410;28;20046;-73
2023/08/17 07:46:45;;;;;;;11.02;9.80;;;;;;;48.64;16.78;100011.84;4938726;28;20073;-72
2023/08/17 07:49:11;;;;;;;10.82;9.57;;;;;;;48.53;15.92;99999.34;4956493;28;20046;-74
2023/08/17 07:51:36;;;;;;;12.70;9.02;;;;;;;48.18;15.94;99991.28;4938011;28;20509;-73
2023/08/17 07:54:01;;;;;;;12.23;9.55;;;;;;;48.20;15.93;99997.41;4939013;28;20069;-73
2023/08/17 07:56:27;;;;;;;10.60;9.43;;;;;;;47.87;16.33;99988.13;4938650;28;20049;-75
2023/08/17 07:58:55;;;;;;;10.10;8.55;;;;;;;47.44;16.46;99997.88;4956391;28;20133;-72
2023/08/17 08:01:22;;;;;;;9.95;7.70;;;;;;;47.32;16.16;99987.31;4938385;28;20057;-73
2023/08/17 08:03:48;;;;;;;8.95;8.25;;;;;;;47.68;16.30;99992.31;4939018;28;20448;-74
2023/08/17 08:06:20;;;;;;;10.43;9.38;;;;;;;47.89;15.88;99975.31;4956247;28;20053;-74
2023/08/17 08:08:47;;;;;;;9.90;8.93;;;;;;;48.52;15.85;100000.53;4956257;28;20050;-74
2023/08/17 08:11:21;;;;;;;9.55;8.88;;;;;;;49.06;15.35;99990.53;4955547;28;20038;-73
2023/08/17 08:13:49;;;;;;;11.68;10.60;;;;;;;49.37;14.97;100011.69;4956231;28;20050;-73
2023/08/17 08:16:15;;;;;;;13.50;9.30;;;;;;;49.42;15.11;99997.28;4954980;28;20069;-73
2023/08/17 08:18:45;;;;;;;10.40;9.50;;;;;;;49.06;14.96;99992.56;4954989;28;20054;-73
2023/08/17 08:21:11;;;;;;;11.60;9.70;;;;;;;48.55;15.00;100002.63;4955991;28;20046;-73
2023/08/17 08:23:36;;;;;;;10.93;9.95;;;;;;;48.10;15.46;99992.22;4922133;28;20149;-72
2023/08/17 08:26:01;;;;;;;10.98;9.90;;;;;;;48.14;15.66;99986.69;4955980;28;20409;-73
2023/08/17 08:28:27;;;;;;;9.68;8.88;;;;;;;48.55;15.67;99982.81;4938365;28;20417;-73
2023/08/17 08:30:54;;;;;;;10.50;9.50;;;;;;;49.26;14.84;99987.91;4957335;28;20049;-74
2023/08/17 08:33:23;;;;;;;10.48;9.48;;;;;;;49.99;14.20;99984.75;4923371;28;20058;-73
2023/08/17 08:38:40;;;;;;;13.13;11.88;;;;;;;50.88;13.73;99978.44;4939518;28;20069;-76
2023/08/17 08:41:11;;;;;;;13.13;12.13;;;;;;;51.29;13.86;99977.75;4955790;28;20049;-74
2023/08/17 08:43:44;;;;;;;15.27;13.20;;;;;;;51.73;13.30;99969.69;4956975;28;20059;-74
2023/08/17 08:46:11;;;;;;;15.07;13.75;;;;;;;51.89;13.27;99986.69;4956870;28;20053;-75
2023/08/17 08:51:34;;;;;;;16.60;15.18;;;;;;;52.66;13.16;99971.31;4935467;28;20054;-73
2023/08/17 08:54:49;;;;;;;18.05;16.85;;;;;;;53.21;12.53;99967.66;4935291;28;20047;-75
2023/08/17 08:57:18;;;;;;;18.08;16.48;;;;;;;52.61;12.67;99975.31;4918623;28;20099;-74
2023/08/17 08:59:47;;;;;;;21.50;19.77;;;;;;;52.69;12.66;99964.88;4934502;28;20533;-75
2023/08/17 09:02:18;;;;;;;19.77;18.42;;;;;;;53.25;12.47;99964.84;4934430;28;20078;-74
2023/08/17 09:07:35;;;;;;;20.90;19.65;;;;;;;53.09;11.98;99949.97;4917878;28;20061;-73
2023/08/17 09:10:00;;;;;;;20.50;18.92;;;;;;;52.31;12.46;99943.94;4917707;28;20054;-76
2023/08/17 09:12:25;;;;;;;19.73;18.27;;;;;;;51.88;12.72;99946.06;4918345;28;20146;-77
2023/08/17 09:14:51;;;;;;;19.55;18.25;;;;;;;51.91;12.72;99943.66;4919707;28;20055;-77
2023/08/17 09:20:40;;;;;;;18.55;17.40;;;;;;;53.27;12.52;99939.66;4903749;28;20047;-76
2023/08/17 09:23:15;;;;;;;19.75;18.40;;;;;;;52.71;12.11;99946.19;4927895;28;20059;-77
2023/08/17 09:25:43;;;;;;;19.95;18.60;;;;;;;51.70;12.60;99941.22;4919987;28;20505;-79
2023/08/17 09:28:10;;;;;;;18.52;17.48;;;;;;;50.80;13.00;99947.03;4938437;28;20050;-78
2023/08/17 09:30:59;;;;;;;16.08;15.05;;;;;;;50.64;14.32;99951.13;4940026;28;20537;-79
2023/08/17 09:33:30;;;;;;;15.32;14.02;;;;;;;49.28;14.47;99934.53;4939759;28;20050;-76
2023/08/17 09:36:00;;;;;;;14.02;12.93;;;;;;;48.64;15.35;99936.25;4940996;28;20046;-76
2023/08/17 09:38:27;;;;;;;15.43;13.63;;;;;;;48.53;14.97;99952.06;4940429;28;20521;-77
2023/08/17 09:40:53;;;;;;;14.55;13.65;;;;;;;47.97;15.34;99942.47;4922484;28;20421;-77
2023/08/17 09:43:44;;;;;;;13.63;12.60;;;;;;;48.26;15.07;99935.78;4939191;28;20058;-75
2023/08/17 09:46:13;;;;;;;12.80;11.73;;;;;;;46.42;15.88;99938.16;4938981;28;20049;-75
2023/08/17 09:49:06;;;;;;;10.63;9.68;;;;;;;45.98;16.78;99923.44;4938974;28;20066;-74
2023/08/17 09:51:36;;;;;;;11.85;10.07;;;;;;;46.10;16.69;99932.00;4938875;28;20406;-74
2023/08/17 09:54:05;;;;;;;10.75;9.65;;;;;;;46.37;16.10;99930.72;4938838;28;20047;-74
2023/08/17 09:56:31;;;;;;;12.25;9.85;;;;;;;46.99;15.92;99944.91;4953925;28;20421;-74
2023/08/17 09:59:00;;;;;;;10.48;9.07;;;;;;;47.54;15.39;99926.81;4921755;28;20148;-73
2023/08/17 10:01:28;;;;;;;12.93;10.35;;;;;;;47.07;15.65;99948.03;4954988;28;20058;-73
2023/08/17 10:03:55;;;;;;;11.15;10.25;;;;;;;46.14;17.03;99932.97;4940460;28;20385;-75
2023/08/17 10:06:26;;;;;;;15.73;10.90;;;;;;;45.39;17.53;99950.56;4956368;28;20053;-74
2023/08/17 10:08:54;;;;;;;11.52;10.40;;;;;;;44.51;18.02;99926.31;4939237;28;20050;-75
2023/08/17 10:11:22;;;;;;;11.15;10.15;;;;;;;44.15;18.07;99914.47;4936504;28;20046;-74
2023/08/17 10:14:15;;;;;;;10.43;8.88;;;;;;;44.23;17.81;99915.66;4958067;28;20046;-75
2023/08/17 10:17:12;;;;;;;9.75;8.85;;;;;;;43.64;18.72;99917.84;4957138;28;20417;-75
2023/08/17 10:20:31;;;;;;;9.55;8.63;;;;;;;45.15;18.19;99908.88;4935959;28;20050;-75
2023/08/17 10:23:11;;;;;;;8.90;8.13;;;;;;;45.81;17.63;99923.50;4940595;28;20046;-76
2023/08/17 10:26:04;;;;;;;12.52;8.45;;;;;;;43.73;18.15;99927.16;4946585;28;20053;-76
2023/08/17 10:28:36;;;;;;;7.80;7.00;;;;;;;41.41;20.05;99917.06;4957674;28;20493;-77
2023/08/17 10:31:02;;;;;;;8.32;6.50;;;;;;;39.37;22.14;99924.38;4958110;28;20050;-76
2023/08/17 10:34:18;;;;;;;12.30;5.93;;;;;;;37.28;23.29;99923.50;4948307;28;20053;-76
2023/08/17 10:36:46;;;;;;;7.20;6.13;;;;;;;36.00;25.46;99915.03;4957874;28;20489;-77
2023/08/17 10:39:26;;;;;;;6.90;5.82;;;;;;;35.33;26.13;99917.63;4955436;28;20046;-77
2023/08/17 10:41:53;;;;;;;12.65;5.90;;;;;;;34.38;27.37;99869.25;4958179;28;20042;-77
2023/08/17 10:44:37;;;;;;;7.60;5.80;;;;;;;33.94;28.60;99909.91;4954748;28;20037;-73
2023/08/17 10:47:32;;;;;;;9.68;5.10;;;;;;;33.03;29.17;99923.91;4956207;28;20065;-75
2023/08/17 10:49:58;;;;;;;9.73;6.07;;;;;;;32.52;29.87;99922.06;4943320;28;20065;-74
2023/08/17 10:52:31;;;;;;;9.95;5.85;;;;;;;32.16;30.01;99919.66;4952713;28;20053;-73
2023/08/17 10:55:00;;;;;;;11.70;6.68;;;;;;;31.77;30.47;99907.47;4939555;28;20540;-73
2023/08/17 10:57:36;;;;;;;8.80;5.65;;;;;;;31.54;30.95;99930.34;4939925;28;20538;-72
2023/08/17 11:03:18;;;;;;;11.98;5.97;;;;;;;30.66;32.25;99929.16;4922602;28;20049;-74
2023/08/17 11:05:58;;;;;;;12.60;5.88;;;;;;;30.33;32.83;99906.75;4941177;28;20061;-76
2023/08/17 11:08:32;;;;;;;9.35;5.88;;;;;;;30.09;33.55;99904.94;4941797;28;20057;-76
2023/08/17 11:11:09;;;;;;;8.18;5.07;;;;;;;29.94;33.51;99925.34;4941585;28;20053;-77
2023/08/17 11:13:46;;;;;;;6.28;4.97;;;;;;;29.76;35.21;99928.09;4940827;28;20054;-75
2023/08/17 11:16:15;;;;;;;7.18;5.20;;;;;;;29.61;34.70;99883.66;4925031;28;20417;-76
2023/08/17 11:21:56;;;;;;;7.10;5.10;;;;;;;28.98;35.29;99907.66;4957259;28;20077;-75
2023/08/17 11:24:26;;;;;;;8.43;6.20;;;;;;;28.17;37.78;99900.03;4955750;28;20046;-75
2023/08/17 11:26:52;;;;;;;13.60;6.20;;;;;;;27.55;39.63;99895.97;4939345;28;20058;-74
2023/08/17 11:29:18;;;;;;;12.07;6.30;;;;;;;27.32;39.74;99890.06;4938353;28;20065;-73
2023/08/17 11:31:45;;;;;;;6.80;4.93;;;;;;;27.35;40.63;99886.94;4956214;28;20053;-75
2023/08/17 11:34:18;;;;;;;8.68;5.40;;;;;;;27.52;40.59;99904.63;4955929;28;20053;-74
2023/08/17 11:36:43;;;;;;;6.87;5.43;;;;;;;27.68;39.79;99895.13;4955007;28;20041;-74
2023/08/17 11:39:09;;;;;;;8.48;5.20;;;;;;;27.80;38.97;99880.53;4954752;28;20046;-74
2023/08/17 11:41:37;;;;;;;10.68;6.32;;;;;;;27.92;39.23;99888.09;4955436;28;20042;-72
2023/08/17 11:44:05;;;;;;;6.05;5.05;;;;;;;28.01;37.90;99890.38;4955844;28;20046;-71
2023/08/17 11:46:55;;;;;;;12.32;6.40;;;;;;;28.20;36.11;99883.19;4954932;28;20551;-73
2023/08/17 11:49:22;;;;;;;6.63;5.30;;;;;;;28.09;37.22;99892.91;4938563;28;20053;-70
2023/08/17 11:51:51;;;;;;;6.93;5.53;;;;;;;28.12;36.30;99886.13;4938473;28;20050;-69
2023/08/17 11:57:33;;;;;;;9.90;5.90;;;;;;;28.12;36.94;99892.44;4956194;28;20064;-74
2023/08/17 11:59:59;;;;;;;11.10;5.47;;;;;;;28.12;37.44;99875.16;4956371;28;20054;-73
2023/08/17 12:02:25;;;;;;;12.10;5.50;;;;;;;28.09;37.90;99870.97;4939036;28;20050;-70
2023/08/17 12:05:23;;;;;;;9.68;5.60;;;;;;;28.17;37.95;99878.09;4956149;28;20038;-70
2023/08/17 12:07:55;;;;;;;8.73;5.18;;;;;;;28.07;38.24;99872.25;4938287;28;20047;-70
2023/08/17 12:10:22;;;;;;;8.18;5.38;;;;;;;28.00;38.18;99883.22;4951130;28;20046;-69
2023/08/17 12:12:48;;;;;;;10.15;6.15;;;;;;;27.97;37.70;99867.22;4955342;28;20045;-68
2023/08/17 12:15:18;;;;;;;10.77;7.28;;;;;;;27.96;38.11;99872.91;4937937;28;20065;-69
2023/08/17 12:17:52;;;;;;;10.00;7.28;;;;;;;27.90;37.88;99865.53;4933807;28;20076;-69